Time;durP1;ratioP1;P1;durP2;ratioP2;P2;SDS_P1;SDS_P2;PMS_P1;PMS_P2;Temp;Humidity;BMP_temperature;BMP_pressure;BME280_temperature;BME280_humidity;BME280_pressure;Samples;Min_cycle;Max_cycle;Signal;HPM_P1;HPM_P2
2023/09/05 00:00:03;;;;;;;2.20;2.00;;;19.00;99.90;;;;;;5070843;28;20292;-72
2023/09/05 00:02:29;;;;;;;3.27;2.33;;;19.20;99.90;;;;;;5069339;28;20500;-72
2023/09/05 00:04:56;;;;;;;3.83;2.43;;;19.20;99.90;;;;;;5069259;28;20429;-71
2023/09/05 00:07:22;;;;;;;3.00;2.73;;;19.30;99.90;;;;;;5068658;28;20212;-71
2023/09/05 00:09:48;;;;;;;2.57;2.37;;;19.40;99.90;;;;;;5069597;28;20448;-71
2023/09/05 00:12:14;;;;;;;4.30;2.73;;;19.40;99.90;;;;;;5058041;28;20436;-71
2023/09/05 00:14:40;;;;;;;3.03;2.60;;;19.40;99.90;;;;;;5048601;28;20768;-72
2023/09/05 00:17:06;;;;;;;2.60;2.40;;;19.40;99.90;;;;;;5047122;28;20485;-71
2023/09/05 00:19:31;;;;;;;3.13;2.20;;;19.40;99.90;;;;;;5048852;28;20228;-72
2023/09/05 00:21:57;;;;;;;4.10;2.97;;;19.30;99.90;;;;;;5048734;28;20208;-72
2023/09/05 00:24:39;;;;;;;4.70;2.67;;;19.10;99.90;;;;;;5048801;28;20186;-71
2023/09/05 00:27:13;;;;;;;3.10;2.80;;;19.00;99.90;;;;;;5048261;28;20181;-71
2023/09/05 00:29:42;;;;;;;5.83;2.60;;;18.80;99.90;;;;;;5052743;28;20450;-72
2023/09/05 00:32:09;;;;;;;4.10;3.10;;;18.70;99.90;;;;;;5050945;28;20483;-71
2023/09/05 00:34:36;;;;;;;4.30;2.43;;;18.60;99.90;;;;;;5047133;28;20439;-71
2023/09/05 00:37:05;;;;;;;4.30;3.40;;;18.40;99.90;;;;;;5046831;28;20515;-71
2023/09/05 00:39:31;;;;;;;3.07;2.77;;;18.40;99.90;;;;;;5047214;28;20471;-71
2023/09/05 00:41:57;;;;;;;3.50;2.87;;;18.20;99.90;;;;;;5048608;28;20467;-71
2023/09/05 00:44:27;;;;;;;3.50;2.10;;;18.20;99.90;;;;;;5048262;28;20424;-71
2023/09/05 00:46:55;;;;;;;2.80;2.50;;;18.30;99.90;;;;;;5055126;28;20438;-71
2023/09/05 00:49:27;;;;;;;2.83;2.60;;;18.50;99.90;;;;;;5068293;28;20458;-71
2023/09/05 00:51:56;;;;;;;2.90;2.10;;;18.70;99.90;;;;;;5068561;28;20475;-71
2023/09/05 00:54:22;;;;;;;2.00;1.90;;;18.80;99.90;;;;;;5067838;28;21181;-71
2023/09/05 00:56:49;;;;;;;3.33;2.60;;;19.00;99.90;;;;;;5067399;28;20514;-71
2023/09/05 00:59:15;;;;;;;2.83;2.40;;;19.10;99.90;;;;;;5067861;28;20443;-71
2023/09/05 01:01:41;;;;;;;3.27;2.10;;;19.20;99.90;;;;;;5066630;28;20905;-71
2023/09/05 01:04:07;;;;;;;4.30;2.27;;;19.30;99.90;;;;;;5067050;28;20443;-72
2023/09/05 01:06:53;;;;;;;2.63;2.40;;;19.40;99.90;;;;;;5066882;28;20195;-72
2023/09/05 01:09:34;;;;;;;2.40;2.10;;;19.40;99.90;;;;;;5067704;28;20445;-71
2023/09/05 01:12:01;;;;;;;3.07;1.87;;;19.50;99.90;;;;;;5066372;28;20433;-71
2023/09/05 01:14:26;;;;;;;3.60;2.30;;;19.50;99.90;;;;;;5067849;28;20796;-71
2023/09/05 01:16:53;;;;;;;3.00;2.23;;;19.50;99.90;;;;;;5066974;28;20423;-71
2023/09/05 01:19:19;;;;;;;3.17;2.20;;;19.60;99.90;;;;;;5067769;28;20211;-71
2023/09/05 01:22:06;;;;;;;2.33;2.13;;;19.60;99.90;;;;;;5067818;28;20762;-71
2023/09/05 01:24:35;;;;;;;3.57;2.30;;;19.50;99.90;;;;;;5067755;28;20419;-71
2023/09/05 01:27:03;;;;;;;1.77;1.63;;;19.50;99.90;;;;;;5058012;28;20921;-71
2023/09/05 01:29:34;;;;;;;2.40;2.03;;;19.50;99.90;;;;;;5048325;28;20494;-72
2023/09/05 01:32:01;;;;;;;3.63;2.00;;;19.50;99.90;;;;;;5046845;28;20882;-71
2023/09/05 01:34:27;;;;;;;3.80;2.10;;;19.50;99.90;;;;;;5047260;28;20455;-71
2023/09/05 01:36:53;;;;;;;3.57;1.83;;;19.50;99.90;;;;;;5046293;28;20819;-71
2023/09/05 01:39:19;;;;;;;3.10;2.80;;;19.50;99.90;;;;;;5046933;28;20652;-72
2023/09/05 01:41:45;;;;;;;3.03;2.40;;;19.40;99.90;;;;;;5046398;28;20579;-71
2023/09/05 01:44:11;;;;;;;2.83;2.60;;;19.40;99.90;;;;;;5045567;28;20503;-72
2023/09/05 01:46:37;;;;;;;2.53;2.13;;;19.20;99.90;;;;;;5046157;28;20186;-71
2023/09/05 01:49:03;;;;;;;4.27;2.37;;;19.40;99.90;;;;;;5063568;28;20201;-71
2023/09/05 01:51:29;;;;;;;2.50;2.30;;;19.40;99.90;;;;;;5067001;28;21027;-71
2023/09/05 01:53:54;;;;;;;3.70;2.33;;;19.50;99.90;;;;;;5066803;28;20774;-71
2023/09/05 01:56:20;;;;;;;2.37;2.17;;;19.50;99.90;;;;;;5065848;28;20546;-71
2023/09/05 01:58:46;;;;;;;3.20;2.00;;;19.70;99.90;;;;;;5067021;28;20208;-70
2023/09/05 02:01:11;;;;;;;6.33;2.00;;;19.70;99.90;;;;;;5064854;28;20525;-71
2023/09/05 02:03:39;;;;;;;1.83;1.70;;;19.80;99.90;;;;;;5066866;28;20189;-71
2023/09/05 02:06:04;;;;;;;2.37;2.03;;;19.90;99.90;;;;;;5065462;28;20263;-71
2023/09/05 02:08:30;;;;;;;2.20;2.00;;;19.90;99.90;;;;;;5066651;28;20968;-71
2023/09/05 02:10:56;;;;;;;1.70;1.60;;;19.80;99.90;;;;;;5066847;28;20630;-71
2023/09/05 02:13:22;;;;;;;4.73;2.33;;;19.80;99.90;;;;;;5066414;28;20181;-71
2023/09/05 02:15:47;;;;;;;3.17;2.73;;;19.70;99.90;;;;;;5065820;28;20185;-71
2023/09/05 02:18:13;;;;;;;2.37;2.17;;;19.60;99.90;;;;;;5066190;28;20268;-72
2023/09/05 02:20:40;;;;;;;5.80;3.10;;;19.40;99.90;;;;;;5066576;28;20220;-71
2023/09/05 02:23:06;;;;;;;3.70;3.27;;;19.30;99.90;;;;;;5066508;28;20227;-71
2023/09/05 02:25:32;;;;;;;3.43;2.83;;;19.20;99.90;;;;;;5066034;28;20533;-71
2023/09/05 02:27:58;;;;;;;3.10;2.80;;;19.20;99.90;;;;;;5066070;28;20441;-71
2023/09/05 02:30:25;;;;;;;3.20;2.80;;;19.10;99.90;;;;;;5046656;28;20448;-71
2023/09/05 02:32:54;;;;;;;3.60;2.90;;;19.00;99.90;;;;;;5046481;28;20427;-71
2023/09/05 02:35:22;;;;;;;3.00;2.70;;;18.80;99.90;;;;;;5045681;28;20556;-71
2023/09/05 02:37:52;;;;;;;3.83;3.30;;;18.70;99.90;;;;;;5044780;28;20955;-71
2023/09/05 02:40:19;;;;;;;4.50;3.37;;;18.60;99.90;;;;;;5055837;28;20431;-71
2023/09/05 02:42:45;;;;;;;3.20;2.80;;;18.50;99.90;;;;;;5066942;28;20983;-71
2023/09/05 02:45:11;;;;;;;3.50;3.20;;;18.40;99.90;;;;;;5065952;28;20538;-71
2023/09/05 02:47:37;;;;;;;3.77;3.47;;;18.20;99.90;;;;;;5066129;28;20548;-71
2023/09/05 02:50:03;;;;;;;4.20;3.30;;;18.20;99.90;;;;;;5057248;28;20448;-71
2023/09/05 02:52:30;;;;;;;2.83;2.63;;;18.10;99.90;;;;;;5060922;28;20612;-71
2023/09/05 02:54:55;;;;;;;8.17;3.80;;;18.00;99.90;;;;;;5054337;28;20515;-70
2023/09/05 02:57:22;;;;;;;3.43;3.13;;;17.90;99.90;;;;;;5068461;28;20498;-71
2023/09/05 02:59:54;;;;;;;5.00;3.50;;;17.70;99.90;;;;;;5071866;28;20228;-71
2023/09/05 03:02:22;;;;;;;4.87;3.70;;;17.60;99.90;;;;;;5067331;28;21164;-71
2023/09/05 03:04:51;;;;;;;3.50;3.20;;;17.60;99.90;;;;;;5079904;28;20425;-71
2023/09/05 03:07:19;;;;;;;7.40;3.17;;;17.50;99.90;;;;;;5055299;28;20485;-71
2023/09/05 03:09:44;;;;;;;4.60;3.63;;;17.40;99.90;;;;;;5065490;28;20548;-71
2023/09/05 03:12:10;;;;;;;4.60;3.40;;;17.40;99.90;;;;;;5070377;28;20431;-71
2023/09/05 03:14:35;;;;;;;5.13;2.80;;;17.30;99.90;;;;;;5069765;28;20192;-71
2023/09/05 03:17:03;;;;;;;3.70;3.40;;;17.40;99.90;;;;;;5069101;28;20196;-71
2023/09/05 03:19:28;;;;;;;3.70;3.13;;;17.30;99.90;;;;;;5069505;28;20258;-71
2023/09/05 03:21:54;;;;;;;5.50;3.57;;;17.30;99.90;;;;;;5069657;28;20470;-71
2023/09/05 03:24:24;;;;;;;5.20;3.60;;;17.20;99.90;;;;;;5066606;28;20197;-71
2023/09/05 03:26:50;;;;;;;3.30;3.00;;;17.30;99.90;;;;;;5047648;28;20190;-71
2023/09/05 03:29:16;;;;;;;3.53;3.20;;;17.30;99.90;;;;;;5051823;28;21150;-71
2023/09/05 03:31:43;;;;;;;3.77;3.07;;;17.30;99.90;;;;;;5069250;28;20212;-71
2023/09/05 03:34:09;;;;;;;4.40;3.57;;;17.30;99.90;;;;;;5069253;28;20191;-71
2023/09/05 03:36:35;;;;;;;4.40;3.73;;;17.30;99.90;;;;;;5068314;28;20419;-71
2023/09/05 03:39:01;;;;;;;5.20;3.87;;;17.30;99.90;;;;;;5069164;28;20213;-71
2023/09/05 03:41:28;;;;;;;9.30;3.77;;;17.20;99.90;;;;;;5068090;28;20542;-71
2023/09/05 03:43:54;;;;;;;5.23;3.50;;;17.20;99.90;;;;;;5069132;28;20419;-71
2023/09/05 03:46:20;;;;;;;3.97;3.33;;;17.20;99.90;;;;;;5068299;28;20469;-71
2023/09/05 03:48:47;;;;;;;2.93;2.70;;;17.20;99.90;;;;;;5067768;28;20526;-71
2023/09/05 03:51:12;;;;;;;6.97;3.57;;;17.20;99.90;;;;;;5069111;28;20484;-71
2023/09/05 03:53:38;;;;;;;7.43;3.50;;;17.20;99.90;;;;;;5069092;28;20928;-71
2023/09/05 03:56:04;;;;;;;5.37;3.57;;;17.10;99.90;;;;;;5067806;28;20192;-71
2023/09/05 03:58:31;;;;;;;4.30;3.20;;;17.20;99.90;;;;;;5069209;28;20192;-71
2023/09/05 04:01:03;;;;;;;4.10;3.27;;;17.10;99.90;;;;;;5066818;28;20205;-71
2023/09/05 04:03:32;;;;;;;3.60;3.30;;;17.10;99.90;;;;;;5041158;28;20463;-71
2023/09/05 04:06:00;;;;;;;5.47;3.00;;;17.10;99.90;;;;;;5047816;28;20435;-71
2023/09/05 04:08:27;;;;;;;4.77;3.47;;;17.10;99.90;;;;;;5048877;28;20417;-71
2023/09/05 04:11:00;;;;;;;4.50;3.90;;;17.00;99.90;;;;;;5048799;28;20427;-71
2023/09/05 04:13:28;;;;;;;3.93;3.50;;;17.00;99.90;;;;;;5041353;28;20519;-71
2023/09/05 04:15:54;;;;;;;5.87;3.30;;;17.00;99.90;;;;;;5047750;28;20424;-71
2023/09/05 04:18:20;;;;;;;4.03;3.13;;;16.90;99.90;;;;;;5047228;28;20439;-71
2023/09/05 04:20:46;;;;;;;3.67;3.33;;;16.90;99.90;;;;;;5047021;28;20551;-71
2023/09/05 04:23:12;;;;;;;5.27;3.57;;;16.90;99.90;;;;;;5048423;28;20639;-70
2023/09/05 04:25:40;;;;;;;6.60;3.80;;;16.90;99.90;;;;;;5046603;28;20252;-71
2023/09/05 04:28:09;;;;;;;5.40;3.47;;;16.80;99.90;;;;;;5047026;28;20280;-71
2023/09/05 04:30:35;;;;;;;3.60;3.30;;;16.80;99.90;;;;;;5061544;28;20467;-71
2023/09/05 04:33:03;;;;;;;5.40;3.63;;;16.80;99.90;;;;;;5050097;28;20534;-71
2023/09/05 04:35:29;;;;;;;3.60;3.27;;;16.90;99.90;;;;;;5063930;28;20423;-71
2023/09/05 04:37:55;;;;;;;5.50;3.67;;;16.80;99.90;;;;;;5047457;28;20420;-71
2023/09/05 04:40:21;;;;;;;3.73;3.30;;;16.80;99.90;;;;;;5048560;28;20433;-71
2023/09/05 04:42:47;;;;;;;4.20;3.90;;;16.80;99.90;;;;;;5048016;28;20420;-71
2023/09/05 04:45:13;;;;;;;5.03;3.70;;;16.80;99.90;;;;;;5047627;28;20452;-72
2023/09/05 04:47:38;;;;;;;4.63;4.10;;;16.70;99.90;;;;;;5047785;28;20756;-71
2023/09/05 04:50:05;;;;;;;5.17;4.20;;;16.70;99.90;;;;;;5047789;28;20308;-71
2023/09/05 04:52:31;;;;;;;4.60;3.93;;;16.70;99.90;;;;;;5048304;28;20186;-71
2023/09/05 04:54:59;;;;;;;5.63;4.37;;;16.70;99.90;;;;;;5047712;28;20458;-71
2023/09/05 04:57:26;;;;;;;5.90;3.80;;;16.70;99.90;;;;;;5039988;28;20447;-71
2023/09/05 04:59:57;;;;;;;5.33;4.40;;;16.80;99.90;;;;;;5046055;28;20816;-71
2023/09/05 05:02:26;;;;;;;5.40;4.67;;;16.80;99.90;;;;;;5046760;28;20574;-71
2023/09/05 05:04:53;;;;;;;6.17;4.17;;;16.70;99.90;;;;;;5047495;28;20420;-71
2023/09/05 05:07:20;;;;;;;4.60;3.47;;;16.80;99.90;;;;;;5047110;28;20516;-71
2023/09/05 05:09:47;;;;;;;4.83;4.30;;;16.80;99.90;;;;;;5048082;28;20447;-71
2023/09/05 05:12:13;;;;;;;5.37;4.47;;;16.90;99.90;;;;;;5047610;28;20519;-71
2023/09/05 05:14:39;;;;;;;5.87;4.50;;;16.80;99.90;;;;;;5047731;28;20522;-71
2023/09/05 05:17:06;;;;;;;4.80;4.37;;;16.70;99.90;;;;;;5028609;28;21071;-72
2023/09/05 05:19:31;;;;;;;6.13;4.17;;;16.70;99.90;;;;;;5047967;28;20263;-71
2023/09/05 05:21:58;;;;;;;4.87;4.37;;;16.70;99.90;;;;;;5063705;28;20943;-71
2023/09/05 05:24:23;;;;;;;7.77;4.63;;;16.70;99.90;;;;;;5066155;28;20234;-71
2023/09/05 05:26:49;;;;;;;5.77;4.80;;;16.70;99.90;;;;;;5066815;28;20506;-71
2023/09/05 05:29:15;;;;;;;5.03;4.53;;;16.70;99.90;;;;;;5057209;28;20290;-71
2023/09/05 05:31:42;;;;;;;5.23;4.23;;;16.70;99.90;;;;;;5047562;28;20247;-71
2023/09/05 05:34:08;;;;;;;5.40;3.77;;;16.70;99.90;;;;;;5047318;28;20432;-71
2023/09/05 05:36:34;;;;;;;5.43;4.50;;;16.80;99.90;;;;;;5046713;28;20497;-71
2023/09/05 05:39:01;;;;;;;7.07;4.70;;;16.80;99.90;;;;;;5046225;28;20462;-71
2023/09/05 05:41:27;;;;;;;5.70;4.60;;;16.90;99.90;;;;;;5047477;28;20467;-70
2023/09/05 05:43:53;;;;;;;11.73;4.60;;;16.90;99.90;;;;;;5048027;28;20431;-71
2023/09/05 05:46:19;;;;;;;5.27;4.17;;;16.90;99.90;;;;;;5046030;28;20431;-71
2023/09/05 05:48:45;;;;;;;8.30;4.37;;;17.00;99.90;;;;;;5047663;28;20444;-71
2023/09/05 05:51:12;;;;;;;8.13;3.70;;;17.00;99.90;;;;;;5047217;28;20193;-71
2023/09/05 05:53:38;;;;;;;4.07;3.67;;;17.20;99.90;;;;;;5047583;28;20443;-70
2023/09/05 05:56:04;;;;;;;7.00;4.20;;;17.20;99.90;;;;;;5046286;28;20420;-71
2023/09/05 05:58:31;;;;;;;5.70;3.73;;;17.30;99.90;;;;;;5047079;28;20420;-71
2023/09/05 06:00:57;;;;;;;4.80;4.40;;;17.50;99.90;;;;;;5045633;28;20483;-71
2023/09/05 06:03:23;;;;;;;5.57;3.93;;;17.70;99.90;;;;;;5046925;28;20431;-71
2023/09/05 06:05:50;;;;;;;5.30;4.00;;;17.80;99.90;;;;;;5062099;28;20509;-71
2023/09/05 06:08:16;;;;;;;6.67;4.03;;;18.00;99.90;;;;;;5076378;28;20429;-71
2023/09/05 06:10:42;;;;;;;8.20;3.87;;;18.20;99.90;;;;;;5063368;28;20789;-71
2023/09/05 06:13:09;;;;;;;6.17;4.23;;;18.30;99.90;;;;;;5060784;28;20428;-71
2023/09/05 06:15:35;;;;;;;5.87;3.70;;;18.60;99.90;;;;;;5071260;28;20423;-72
2023/09/05 06:18:01;;;;;;;4.83;3.70;;;18.80;99.90;;;;;;5066986;28;20445;-72
2023/09/05 06:20:28;;;;;;;6.10;3.93;;;19.00;99.90;;;;;;5066995;28;20511;-72
2023/09/05 06:22:54;;;;;;;5.10;4.03;;;19.10;99.90;;;;;;5066123;28;20423;-72
2023/09/05 06:25:21;;;;;;;7.53;4.20;;;19.20;99.90;;;;;;5066244;28;20993;-72
2023/09/05 06:27:47;;;;;;;6.13;3.50;;;19.40;99.90;;;;;;5071778;28;20422;-72
2023/09/05 06:30:13;;;;;;;3.63;3.23;;;19.50;99.90;;;;;;5055311;28;20879;-71
2023/09/05 06:32:40;;;;;;;5.07;3.50;;;19.70;99.90;;;;;;5053512;28;20675;-72
2023/09/05 06:35:06;;;;;;;3.73;3.00;;;19.90;99.90;;;;;;5053094;28;20905;-72
2023/09/05 06:37:35;;;;;;;3.20;2.90;;;20.10;99.90;;;;;;5052695;28;20542;-72
2023/09/05 06:40:03;;;;;;;5.23;3.23;;;20.40;99.90;;;;;;5053316;28;20447;-72
2023/09/05 06:42:30;;;;;;;4.53;3.33;;;20.50;99.90;;;;;;5053061;28;20508;-72
2023/09/05 06:44:56;;;;;;;3.30;3.00;;;20.80;99.90;;;;;;5053339;28;20590;-72
2023/09/05 06:47:22;;;;;;;2.70;2.50;;;20.90;99.90;;;;;;5052594;28;20644;-71
2023/09/05 06:49:47;;;;;;;3.33;2.80;;;21.10;99.90;;;;;;5053115;28;20212;-71
2023/09/05 06:52:13;;;;;;;4.27;3.17;;;21.30;99.90;;;;;;5053222;28;20193;-72
2023/09/05 06:54:39;;;;;;;4.20;3.20;;;21.40;99.90;;;;;;5052765;28;20687;-72
2023/09/05 06:57:05;;;;;;;3.00;2.80;;;21.50;99.90;;;;;;5052576;28;20678;-72
2023/09/05 06:59:30;;;;;;;4.50;3.40;;;21.60;99.90;;;;;;5052007;28;20206;-72
2023/09/05 07:01:56;;;;;;;4.60;3.70;;;21.70;99.90;;;;;;5052791;28;20467;-71
2023/09/05 07:04:22;;;;;;;3.23;2.93;;;21.80;99.90;;;;;;5052941;28;20209;-72
2023/09/05 07:06:48;;;;;;;3.20;2.70;;;22.00;99.90;;;;;;5052129;28;20274;-72
2023/09/05 07:09:14;;;;;;;5.83;3.27;;;22.10;99.90;;;;;;5052910;28;20331;-71
2023/09/05 07:11:40;;;;;;;4.53;3.40;;;22.20;99.90;;;;;;5052017;28;20442;-71
2023/09/05 07:14:07;;;;;;;3.97;3.20;;;22.20;99.90;;;;;;5052994;28;20552;-71
2023/09/05 07:16:33;;;;;;;4.63;3.50;;;22.30;99.90;;;;;;5052378;28;20448;-71
2023/09/05 07:18:58;;;;;;;3.90;3.50;;;22.30;99.90;;;;;;5051605;28;20482;-71
2023/09/05 07:21:24;;;;;;;3.80;2.90;;;22.30;99.90;;;;;;5053094;28;20224;-71
2023/09/05 07:23:50;;;;;;;3.23;2.90;;;22.30;99.90;;;;;;5053048;28;20178;-71
2023/09/05 07:26:17;;;;;;;3.23;3.00;;;22.20;99.90;;;;;;5050611;28;20264;-71
2023/09/05 07:28:46;;;;;;;3.17;2.70;;;22.30;99.90;;;;;;5051676;28;20531;-71
2023/09/05 07:31:14;;;;;;;4.90;3.37;;;22.20;99.90;;;;;;5070758;28;20897;-71
2023/09/05 07:33:40;;;;;;;4.40;3.40;;;22.20;99.90;;;;;;5071684;28;20427;-71
2023/09/05 07:36:06;;;;;;;3.13;2.93;;;22.30;99.90;;;;;;5071578;28;20418;-71
2023/09/05 07:38:32;;;;;;;2.90;2.70;;;22.30;99.90;;;;;;5068781;28;20583;-71
2023/09/05 07:41:05;;;;;;;3.13;2.83;;;22.30;99.90;;;;;;5053466;28;20460;-71
2023/09/05 07:43:32;;;;;;;3.13;2.83;;;22.40;99.90;;;;;;5049763;28;20208;-71
2023/09/05 07:45:58;;;;;;;4.17;3.00;;;22.40;99.90;;;;;;5047408;28;20470;-71
2023/09/05 07:48:24;;;;;;;4.10;3.10;;;22.50;99.90;;;;;;5049500;28;20404;-71
2023/09/05 07:50:50;;;;;;;4.10;2.87;;;22.50;99.90;;;;;;5048714;28;20427;-72
2023/09/05 07:53:16;;;;;;;3.40;2.83;;;22.50;99.90;;;;;;5047876;28;20197;-71
2023/09/05 07:55:42;;;;;;;5.03;3.57;;;22.60;99.90;;;;;;5048778;28;20781;-71
2023/09/05 07:58:08;;;;;;;3.20;2.90;;;22.60;99.90;;;;;;5050169;28;20569;-71
2023/09/05 08:00:34;;;;;;;4.43;3.83;;;22.60;99.90;;;;;;5067587;28;20251;-71
2023/09/05 08:03:03;;;;;;;8.30;3.20;;;22.60;99.90;;;;;;5051008;28;20775;-71
2023/09/05 08:05:29;;;;;;;4.03;3.37;;;22.60;99.90;;;;;;5069165;28;20917;-71
2023/09/05 08:07:55;;;;;;;5.17;3.20;;;22.60;99.90;;;;;;5068748;28;20415;-71
2023/09/05 08:10:20;;;;;;;7.40;3.13;;;22.70;99.90;;;;;;5067450;28;20530;-71
2023/09/05 08:12:46;;;;;;;3.23;2.93;;;22.70;99.90;;;;;;5069134;28;20196;-71
2023/09/05 08:15:12;;;;;;;3.10;2.70;;;22.70;99.90;;;;;;5067104;28;20189;-71
2023/09/05 08:17:38;;;;;;;4.73;2.70;;;22.80;99.90;;;;;;5068455;28;20196;-71
2023/09/05 08:20:04;;;;;;;3.50;3.20;;;22.80;99.90;;;;;;5068867;28;20251;-71
2023/09/05 08:22:30;;;;;;;4.00;2.93;;;22.80;99.90;;;;;;5068616;28;20216;-71
2023/09/05 08:24:56;;;;;;;3.50;3.17;;;22.90;99.90;;;;;;5067420;28;20916;-71
2023/09/05 08:27:28;;;;;;;3.63;2.87;;;22.90;99.90;;;;;;5056285;28;20428;-71
2023/09/05 08:29:55;;;;;;;4.60;2.80;;;22.90;99.90;;;;;;5056214;28;20200;-71
2023/09/05 08:32:21;;;;;;;6.80;2.77;;;23.00;99.90;;;;;;5067014;28;21230;-71
2023/09/05 08:34:47;;;;;;;2.80;2.60;;;23.00;99.90;;;;;;5068472;28;20556;-71
2023/09/05 08:37:12;;;;;;;3.60;2.30;;;23.00;99.90;;;;;;5067714;28;20562;-71
2023/09/05 08:39:38;;;;;;;3.80;2.40;;;23.10;99.90;;;;;;5068600;28;20281;-71
2023/09/05 08:42:06;;;;;;;4.47;2.50;;;23.10;99.90;;;;;;5059583;28;20202;-72
2023/09/05 08:44:37;;;;;;;4.23;2.70;;;23.20;99.90;;;;;;5052817;28;20438;-71
2023/09/05 08:47:03;;;;;;;3.77;2.40;;;23.20;99.90;;;;;;5067776;28;20427;-71
2023/09/05 08:49:30;;;;;;;3.10;2.00;;;23.30;99.90;;;;;;5055662;28;20952;-72
2023/09/05 08:52:02;;;;;;;3.10;2.23;;;23.30;99.90;;;;;;5048732;28;20424;-71
2023/09/05 08:54:29;;;;;;;2.60;2.20;;;23.40;99.90;;;;;;5040665;28;20420;-71
2023/09/05 08:56:57;;;;;;;2.47;1.90;;;23.50;99.90;;;;;;5046634;28;20959;-72
2023/09/05 08:59:25;;;;;;;2.43;2.13;;;23.50;99.90;;;;;;5047688;28;20541;-71
2023/09/05 09:01:51;;;;;;;2.60;1.90;;;23.60;99.90;;;;;;5054906;28;20483;-71
2023/09/05 09:04:19;;;;;;;2.97;1.70;;;23.60;99.90;;;;;;5050165;28;20522;-71
2023/09/05 09:06:54;;;;;;;2.50;2.30;;;23.70;99.90;;;;;;5049480;28;20319;-71
2023/09/05 09:09:38;;;;;;;3.20;1.73;;;23.80;99.90;;;;;;5065769;28;20582;-71
2023/09/05 09:12:05;;;;;;;2.83;1.90;;;23.80;99.90;;;;;;5067241;28;20423;-71
2023/09/05 09:14:30;;;;;;;5.37;2.10;;;23.90;99.90;;;;;;5056772;28;20428;-71
2023/09/05 09:17:04;;;;;;;1.87;1.70;;;24.00;99.90;;;;;;5082992;28;20526;-71
2023/09/05 09:19:31;;;;;;;1.53;1.43;;;24.00;99.90;;;;;;5068019;28;20201;-72
2023/09/05 09:22:03;;;;;;;1.50;1.40;;;24.10;99.90;;;;;;5060339;28;21087;-71
2023/09/05 09:24:36;;;;;;;1.90;1.70;;;24.20;99.90;;;;;;5042893;28;21551;-71
2023/09/05 09:27:03;;;;;;;2.00;1.50;;;24.30;99.90;;;;;;5047758;28;20413;-72
2023/09/05 09:29:30;;;;;;;2.67;1.83;;;24.40;99.90;;;;;;5052361;28;20435;-71
2023/09/05 09:32:00;;;;;;;2.43;2.23;;;24.50;99.90;;;;;;5067672;28;20794;-71
2023/09/05 09:34:26;;;;;;;2.77;1.57;;;24.60;99.90;;;;;;5040109;28;20447;-71
2023/09/05 09:36:52;;;;;;;2.13;1.67;;;24.70;99.90;;;;;;5045472;28;20466;-72
2023/09/05 09:39:19;;;;;;;2.03;1.63;;;24.80;99.90;;;;;;5047339;28;20210;-72
2023/09/05 09:41:49;;;;;;;2.20;1.73;;;24.90;99.90;;;;;;5047291;28;20503;-71
2023/09/05 09:44:32;;;;;;;1.60;1.50;;;25.10;99.90;;;;;;5047292;28;20420;-72
2023/09/05 09:46:59;;;;;;;2.83;1.50;;;25.20;99.90;;;;;;5046536;28;20416;-72
2023/09/05 09:49:27;;;;;;;2.00;1.70;;;25.30;99.90;;;;;;5039318;28;20440;-71
2023/09/05 09:51:55;;;;;;;2.30;1.60;;;25.50;99.90;;;;;;5047217;28;20524;-72
2023/09/05 09:54:29;;;;;;;1.93;1.50;;;25.60;99.10;;;;;;5046823;28;20420;-71
2023/09/05 09:56:59;;;;;;;1.57;1.43;;;25.70;98.60;;;;;;5054316;28;20425;-71
2023/09/05 09:59:27;;;;;;;1.40;1.30;;;25.70;97.50;;;;;;5038743;28;20549;-72
2023/09/05 10:01:55;;;;;;;1.77;1.67;;;25.70;98.60;;;;;;5044421;28;20456;-71
2023/09/05 10:04:22;;;;;;;2.40;2.07;;;25.90;99.20;;;;;;5046813;28;20405;-71
2023/09/05 10:06:49;;;;;;;2.00;1.40;;;25.90;99.00;;;;;;5028197;28;20411;-71
2023/09/05 10:09:17;;;;;;;2.70;1.57;;;26.10;99.30;;;;;;5047008;28;20436;-72
2023/09/05 10:11:44;;;;;;;1.50;1.40;;;26.20;98.60;;;;;;5047136;28;20782;-72
2023/09/05 10:14:11;;;;;;;1.60;1.30;;;26.20;98.30;;;;;;5047054;28;20856;-71
2023/09/05 10:16:39;;;;;;;1.60;1.50;;;26.30;99.40;;;;;;5046003;28;20412;-72
2023/09/05 10:19:07;;;;;;;1.50;1.40;;;26.40;98.60;;;;;;5046762;28;20432;-72
2023/09/05 10:21:34;;;;;;;2.27;1.30;;;26.50;98.20;;;;;;5046721;28;20451;-71
2023/09/05 10:24:01;;;;;;;1.30;1.20;;;26.70;98.80;;;;;;5055059;28;20454;-71
2023/09/05 10:26:27;;;;;;;1.70;1.20;;;26.70;98.80;;;;;;5061095;28;20773;-72
2023/09/05 10:28:56;;;;;;;1.90;1.30;;;26.80;97.50;;;;;;5047678;28;20491;-71
2023/09/05 10:31:24;;;;;;;1.53;1.40;;;26.80;97.10;;;;;;5054959;28;20477;-71
2023/09/05 10:33:50;;;;;;;1.80;1.40;;;26.90;96.40;;;;;;5047274;28;21289;-71
2023/09/05 10:36:46;;;;;;;1.70;1.40;;;26.90;97.30;;;;;;5044769;28;20426;-71
2023/09/05 10:39:27;;;;;;;1.50;1.37;;;26.90;96.80;;;;;;5046997;28;20255;-72
2023/09/05 10:41:53;;;;;;;1.60;1.30;;;27.00;97.50;;;;;;5046978;28;20876;-72
2023/09/05 10:44:19;;;;;;;1.40;1.30;;;27.00;96.10;;;;;;5046734;28;20988;-71
2023/09/05 10:46:52;;;;;;;2.00;1.50;;;26.90;95.60;;;;;;5045154;28;20511;-71
2023/09/05 10:49:18;;;;;;;1.70;1.57;;;26.90;96.00;;;;;;5045571;28;20543;-72
2023/09/05 10:52:16;;;;;;;4.47;1.73;;;27.00;97.00;;;;;;5047115;28;20510;-71
2023/09/05 10:54:42;;;;;;;1.40;1.27;;;27.00;96.20;;;;;;5042667;28;21028;-72
2023/09/05 10:57:33;;;;;;;1.50;1.00;;;27.10;96.10;;;;;;5046319;28;20514;-71
2023/09/05 10:59:59;;;;;;;1.80;1.50;;;27.10;96.30;;;;;;5045519;28;20206;-72
2023/09/05 11:02:25;;;;;;;1.37;1.27;;;27.10;96.20;;;;;;5046630;28;21248;-71
2023/09/05 11:04:53;;;;;;;1.80;1.20;;;27.20;96.00;;;;;;5046486;28;20265;-71
2023/09/05 11:07:21;;;;;;;1.57;1.33;;;27.20;95.80;;;;;;5045872;28;20645;-72
2023/09/05 11:09:51;;;;;;;1.87;1.57;;;27.20;95.80;;;;;;5047008;28;20432;-72
2023/09/05 11:12:18;;;;;;;1.50;1.40;;;27.20;95.70;;;;;;5045337;28;20491;-72
2023/09/05 11:14:44;;;;;;;2.07;1.30;;;27.40;96.50;;;;;;5050240;28;20420;-72
2023/09/05 11:17:15;;;;;;;2.13;1.80;;;27.40;97.40;;;;;;5049985;28;20904;-71
2023/09/05 11:19:45;;;;;;;2.20;1.40;;;27.40;96.00;;;;;;5050695;28;20205;-72
2023/09/05 11:22:21;;;;;;;1.80;1.40;;;27.50;96.20;;;;;;5057272;28;20462;-72
2023/09/05 11:24:49;;;;;;;1.47;1.20;;;27.60;95.70;;;;;;5050363;28;20434;-71
2023/09/05 11:27:26;;;;;;;1.33;1.10;;;27.60;96.00;;;;;;5049443;28;20416;-71
2023/09/05 11:29:55;;;;;;;1.67;1.50;;;27.70;96.60;;;;;;5057424;28;20446;-72
2023/09/05 11:32:39;;;;;;;1.63;1.53;;;27.60;95.50;;;;;;5070049;28;20773;-71
2023/09/05 11:35:06;;;;;;;1.53;1.23;;;27.70;95.90;;;;;;5069839;28;20431;-71
2023/09/05 11:37:32;;;;;;;1.70;1.50;;;27.70;95.20;;;;;;5069497;28;20415;-71
2023/09/05 11:40:12;;;;;;;3.87;1.40;;;27.80;96.30;;;;;;5068677;28;20588;-71
2023/09/05 11:42:38;;;;;;;1.50;1.40;;;27.90;95.50;;;;;;5069845;28;20461;-72
2023/09/05 11:45:18;;;;;;;1.90;1.40;;;27.90;95.60;;;;;;5069718;28;20415;-71
2023/09/05 11:47:44;;;;;;;5.03;1.50;;;27.90;95.80;;;;;;5069244;28;20181;-72
2023/09/05 11:50:10;;;;;;;1.97;1.30;;;27.90;96.00;;;;;;5069949;28;20438;-72
2023/09/05 11:52:40;;;;;;;1.90;1.40;;;28.00;97.10;;;;;;5069568;28;20423;-71
2023/09/05 11:55:07;;;;;;;2.13;1.17;;;28.00;96.40;;;;;;5069408;28;20432;-72
2023/09/05 11:57:33;;;;;;;1.93;1.67;;;28.10;95.70;;;;;;5068666;28;20427;-72
2023/09/05 11:59:59;;;;;;;1.73;1.10;;;28.10;94.90;;;;;;5066920;28;20507;-71
2023/09/05 12:02:26;;;;;;;1.77;1.53;;;28.20;95.90;;;;;;5069366;28;21218;-72
2023/09/05 12:04:52;;;;;;;2.53;1.50;;;28.20;95.80;;;;;;5069269;28;20184;-72
2023/09/05 12:07:23;;;;;;;1.50;1.40;;;28.20;95.40;;;;;;5068788;28;21243;-71
2023/09/05 12:09:49;;;;;;;2.70;1.60;;;28.30;95.70;;;;;;5069637;28;20201;-71
2023/09/05 12:12:20;;;;;;;1.33;1.23;;;28.30;95.60;;;;;;5068220;28;20956;-72
2023/09/05 12:14:51;;;;;;;2.33;1.60;;;28.30;95.00;;;;;;5067804;28;20199;-72
2023/09/05 12:17:18;;;;;;;2.33;1.30;;;28.40;95.30;;;;;;5067438;28;20412;-71
2023/09/05 12:19:45;;;;;;;2.93;1.47;;;28.30;95.50;;;;;;5067880;28;20443;-72
2023/09/05 12:22:28;;;;;;;1.73;1.13;;;28.40;94.50;;;;;;5068237;28;20809;-72
2023/09/05 12:25:14;;;;;;;1.50;1.40;;;28.40;94.80;;;;;;5056652;28;20482;-71
2023/09/05 12:27:45;;;;;;;2.03;1.20;;;28.40;95.10;;;;;;5072278;28;20427;-71
2023/09/05 12:30:33;;;;;;;1.90;1.33;;;28.40;94.60;;;;;;5072473;28;20440;-71
2023/09/05 12:33:04;;;;;;;1.80;1.40;;;28.50;95.80;;;;;;5076327;28;20419;-72
2023/09/05 12:35:31;;;;;;;1.53;1.43;;;28.50;94.30;;;;;;5069535;28;20419;-72
2023/09/05 12:37:59;;;;;;;1.20;1.10;;;28.50;95.50;;;;;;5068771;28;20412;-72
2023/09/05 12:40:26;;;;;;;1.60;1.50;;;28.50;95.10;;;;;;5049194;28;20473;-72
2023/09/05 12:42:54;;;;;;;1.90;1.43;;;28.50;95.20;;;;;;5048852;28;20471;-72
2023/09/05 12:45:20;;;;;;;1.70;1.20;;;28.60;95.20;;;;;;5048491;28;20457;-72
2023/09/05 12:47:51;;;;;;;2.40;1.17;;;28.60;96.20;;;;;;5047858;28;20468;-72
2023/09/05 12:50:32;;;;;;;1.93;1.40;;;28.70;95.20;;;;;;5048760;28;20468;-71